Time;durP1;ratioP1;P1;durP2;ratioP2;P2;SDS_P1;SDS_P2;PMS_P1;PMS_P2;Temp;Humidity;BMP_temperature;BMP_pressure;BME280_temperature;BME280_humidity;BME280_pressure;Samples;Min_cycle;Max_cycle;Signal;HPM_P1;HPM_P2
2022/02/12 00:02:03;;;;;;;;;12.25;11.50;;;;;;;;5049392;28;45497;-70
2022/02/12 00:04:29;;;;;;;;;11.75;10.50;;;;;;;;5052924;28;45429;-70
2022/02/12 00:06:54;;;;;;;;;11.25;10.50;;;;;;;;5051709;28;45543;-71
2022/02/12 00:09:19;;;;;;;;;11.00;9.00;;;;;;;;5051633;28;45599;-71
2022/02/12 00:11:44;;;;;;;;;11.00;10.00;;;;;;;;5056505;28;45423;-70
2022/02/12 00:14:10;;;;;;;;;10.25;10.00;;;;;;;;5053965;27;45535;-70
2022/02/12 00:16:35;;;;;;;;;11.50;10.00;;;;;;;;5052893;28;45353;-71
2022/02/12 00:19:00;;;;;;;;;11.75;10.00;;;;;;;;5054780;28;45382;-70
2022/02/12 00:21:25;;;;;;;;;16.25;11.75;;;;;;;;5053269;28;45568;-71
2022/02/12 00:23:50;;;;;;;;;11.75;11.25;;;;;;;;5055479;28;45494;-71
2022/02/12 00:26:16;;;;;;;;;11.75;11.00;;;;;;;;5055960;28;46399;-70
2022/02/12 00:28:42;;;;;;;;;10.50;10.50;;;;;;;;5056978;28;45500;-70
2022/02/12 00:31:10;;;;;;;;;10.00;10.00;;;;;;;;5046547;28;45505;-70
2022/02/12 00:33:35;;;;;;;;;10.25;10.25;;;;;;;;5052723;28;45415;-70
2022/02/12 00:36:00;;;;;;;;;7.25;7.00;;;;;;;;5053201;28;46224;-70
2022/02/12 00:38:25;;;;;;;;;12.00;11.00;;;;;;;;5052397;28;45285;-70
2022/02/12 00:40:50;;;;;;;;;13.00;12.75;;;;;;;;5051357;28;45479;-70
2022/02/12 00:43:16;;;;;;;;;11.75;11.00;;;;;;;;5055337;28;45292;-71
2022/02/12 00:45:41;;;;;;;;;13.75;12.25;;;;;;;;5052671;28;46411;-71
2022/02/12 00:48:06;;;;;;;;;10.25;10.25;;;;;;;;5054901;28;45350;-71
2022/02/12 00:50:31;;;;;;;;;13.50;12.00;;;;;;;;5064808;28;45232;-71
2022/02/12 00:52:56;;;;;;;;;11.50;11.00;;;;;;;;5059268;28;45419;-70
2022/02/12 00:55:22;;;;;;;;;8.50;8.50;;;;;;;;5056111;28;46443;-71
2022/02/12 00:57:47;;;;;;;;;13.00;11.25;;;;;;;;5055955;28;45462;-70
2022/02/12 01:00:12;;;;;;;;;6.00;6.00;;;;;;;;5056324;28;45518;-71
2022/02/12 01:02:38;;;;;;;;;10.25;9.50;;;;;;;;5058580;28;45391;-70
2022/02/12 01:05:04;;;;;;;;;9.00;8.00;;;;;;;;5058313;28;45613;-70
2022/02/12 01:07:29;;;;;;;;;8.75;8.75;;;;;;;;5063149;28;45276;-71
2022/02/12 01:09:54;;;;;;;;;13.00;11.75;;;;;;;;5057835;28;45521;-70
2022/02/12 01:12:19;;;;;;;;;11.75;10.75;;;;;;;;5057991;28;45383;-70
2022/02/12 01:14:44;;;;;;;;;12.25;11.00;;;;;;;;5057432;28;46527;-70
2022/02/12 01:17:10;;;;;;;;;9.00;9.00;;;;;;;;5054766;28;45514;-70
2022/02/12 01:19:35;;;;;;;;;11.50;10.75;;;;;;;;5055152;28;45317;-70
2022/02/12 01:22:00;;;;;;;;;8.75;8.75;;;;;;;;5056058;28;45466;-71
2022/02/12 01:24:25;;;;;;;;;12.25;10.00;;;;;;;;5053531;28;46300;-71
2022/02/12 01:26:51;;;;;;;;;12.75;11.00;;;;;;;;5058146;28;45468;-71
2022/02/12 01:29:16;;;;;;;;;14.00;11.25;;;;;;;;5055427;28;45494;-70
2022/02/12 01:31:41;;;;;;;;;10.75;10.00;;;;;;;;5055463;28;45557;-70
2022/02/12 01:34:07;;;;;;;;;11.00;10.00;;;;;;;;5057219;28;45591;-70
2022/02/12 01:36:32;;;;;;;;;12.00;11.25;;;;;;;;5055482;28;45312;-71
2022/02/12 01:38:57;;;;;;;;;16.75;12.50;;;;;;;;5057351;28;45323;-70
2022/02/12 01:41:22;;;;;;;;;10.50;9.00;;;;;;;;5056567;28;45482;-70
2022/02/12 01:43:47;;;;;;;;;10.75;10.75;;;;;;;;5054694;28;46329;-70
2022/02/12 01:46:13;;;;;;;;;14.00;11.00;;;;;;;;5055348;28;45309;-71
2022/02/12 01:48:41;;;;;;;;;13.75;11.00;;;;;;;;5051313;28;45272;-70
2022/02/12 01:51:07;;;;;;;;;11.50;10.25;;;;;;;;5057903;28;45592;-70
2022/02/12 01:53:32;;;;;;;;;12.00;10.25;;;;;;;;5058147;28;45453;-70
2022/02/12 01:55:58;;;;;;;;;16.50;12.50;;;;;;;;5057933;28;45372;-71
2022/02/12 01:58:23;;;;;;;;;10.75;9.75;;;;;;;;5062951;28;45540;-70
2022/02/12 02:00:48;;;;;;;;;12.00;10.75;;;;;;;;5056807;28;45517;-71
2022/02/12 02:03:14;;;;;;;;;12.00;11.00;;;;;;;;5055311;28;48388;-71
2022/02/12 02:05:39;;;;;;;;;13.00;12.00;;;;;;;;5060299;28;45359;-70
2022/02/12 02:08:05;;;;;;;;;12.75;10.25;;;;;;;;5055910;28;45501;-70
2022/02/12 02:10:30;;;;;;;;;12.25;11.00;;;;;;;;5053657;28;45391;-71
2022/02/12 02:12:55;;;;;;;;;12.75;11.50;;;;;;;;5052410;28;45547;-70
2022/02/12 02:15:20;;;;;;;;;11.25;10.75;;;;;;;;5054108;28;45406;-70
2022/02/12 02:17:46;;;;;;;;;9.75;9.75;;;;;;;;5056838;28;45351;-70
2022/02/12 02:20:11;;;;;;;;;12.00;9.25;;;;;;;;5056090;28;45472;-71
2022/02/12 02:22:50;;;;;;;;;16.75;12.75;;;;;;;;5054793;28;46725;-71
2022/02/12 02:25:15;;;;;;;;;13.00;9.75;;;;;;;;5052457;28;45466;-70
2022/02/12 02:27:41;;;;;;;;;15.50;12.25;;;;;;;;5064932;28;45539;-70
2022/02/12 02:30:10;;;;;;;;;14.00;11.50;;;;;;;;5055501;28;45434;-71
2022/02/12 02:32:35;;;;;;;;;12.75;9.50;;;;;;;;5055414;28;46675;-70
2022/02/12 02:35:00;;;;;;;;;15.50;12.75;;;;;;;;5052470;28;45600;-71
2022/02/12 02:37:26;;;;;;;;;13.50;10.75;;;;;;;;5050735;28;45474;-70
2022/02/12 02:39:51;;;;;;;;;10.75;9.00;;;;;;;;5053731;28;45486;-70
2022/02/12 02:42:17;;;;;;;;;11.00;11.00;;;;;;;;5053904;28;45532;-70
2022/02/12 02:44:42;;;;;;;;;10.50;10.50;;;;;;;;5050846;28;45653;-70
2022/02/12 02:49:52;;;;;;;;;13.75;10.00;;;;;;;;5050028;28;45447;-71
2022/02/12 02:57:49;;;;;;;;;12.75;10.50;;;;;;;;5071443;28;45596;-70
2022/02/12 03:00:14;;;;;;;;;11.50;10.75;;;;;;;;5073750;28;45522;-70
2022/02/12 03:02:39;;;;;;;;;8.75;8.75;;;;;;;;5069484;28;45517;-70
2022/02/12 03:05:05;;;;;;;;;13.25;12.00;;;;;;;;5068929;28;45635;-70
2022/02/12 03:07:30;;;;;;;;;10.50;9.00;;;;;;;;5066807;28;45840;-70
2022/02/12 03:09:55;;;;;;;;;10.00;9.25;;;;;;;;5069193;28;45566;-71
2022/02/12 03:12:20;;;;;;;;;9.50;9.50;;;;;;;;5072701;28;46538;-71
2022/02/12 03:14:46;;;;;;;;;12.00;10.75;;;;;;;;5073654;28;45583;-70
2022/02/12 03:17:11;;;;;;;;;11.00;10.25;;;;;;;;5057694;28;45416;-70
2022/02/12 03:19:36;;;;;;;;;12.75;11.25;;;;;;;;5067998;27;45513;-70
2022/02/12 03:22:01;;;;;;;;;11.00;10.50;;;;;;;;5073270;27;46160;-70
2022/02/12 03:24:27;;;;;;;;;14.75;11.25;;;;;;;;5073260;27;45430;-71
2022/02/12 03:26:52;;;;;;;;;3.50;3.50;;;;;;;;5058332;28;45480;-70
2022/02/12 03:29:17;;;;;;;;;10.00;10.00;;;;;;;;5061906;28;45305;-70
2022/02/12 03:31:43;;;;;;;;;8.25;8.25;;;;;;;;5065420;27;45564;-71
2022/02/12 03:34:08;;;;;;;;;10.50;10.50;;;;;;;;5064331;28;45608;-70
2022/02/12 03:36:33;;;;;;;;;10.75;9.25;;;;;;;;5051652;28;45328;-70
2022/02/12 03:39:01;;;;;;;;;12.00;10.25;;;;;;;;5056501;28;45529;-70
2022/02/12 03:41:26;;;;;;;;;8.75;8.25;;;;;;;;5052094;28;48101;-70
2022/02/12 03:43:51;;;;;;;;;10.50;10.50;;;;;;;;5053356;28;45312;-70
2022/02/12 03:46:16;;;;;;;;;13.25;11.00;;;;;;;;5056697;28;45356;-71
2022/02/12 03:48:42;;;;;;;;;10.00;10.00;;;;;;;;5053681;28;45396;-71
2022/02/12 03:51:07;;;;;;;;;11.75;11.50;;;;;;;;5054570;28;45331;-70
2022/02/12 03:53:32;;;;;;;;;10.00;10.00;;;;;;;;5055653;28;45273;-70
2022/02/12 03:55:57;;;;;;;;;11.00;10.75;;;;;;;;5053301;28;45483;-70
2022/02/12 03:58:23;;;;;;;;;9.00;9.00;;;;;;;;5053393;28;45484;-70
2022/02/12 04:00:49;;;;;;;;;9.00;8.00;;;;;;;;5053370;28;45410;-70
2022/02/12 04:03:14;;;;;;;;;11.75;10.25;;;;;;;;5063377;28;45458;-70
2022/02/12 04:05:46;;;;;;;;;13.75;8.75;;;;;;;;5055726;28;45288;-70
2022/02/12 04:08:13;;;;;;;;;11.00;11.00;;;;;;;;5051336;28;45549;-70
2022/02/12 04:10:40;;;;;;;;;12.25;9.25;;;;;;;;5050970;28;46520;-70
2022/02/12 04:13:05;;;;;;;;;10.50;10.25;;;;;;;;5053048;28;45398;-70
2022/02/12 04:15:30;;;;;;;;;13.00;10.50;;;;;;;;5051034;28;45751;-70
2022/02/12 04:17:56;;;;;;;;;10.00;10.00;;;;;;;;5066904;28;45303;-70
2022/02/12 04:20:26;;;;;;;;;11.75;10.00;;;;;;;;5053516;28;46841;-70
2022/02/12 04:22:51;;;;;;;;;3.25;2.00;;;;;;;;5052445;28;45559;-70
2022/02/12 04:25:18;;;;;;;;;12.00;9.00;;;;;;;;5051468;28;45540;-70
2022/02/12 04:27:44;;;;;;;;;12.25;12.25;;;;;;;;5051729;28;45480;-70
2022/02/12 04:30:10;;;;;;;;;11.25;10.00;;;;;;;;5053763;28;45447;-70
2022/02/12 04:32:35;;;;;;;;;10.00;10.00;;;;;;;;5053128;28;45421;-70
2022/02/12 04:35:02;;;;;;;;;12.25;9.75;;;;;;;;5052295;28;45588;-70
2022/02/12 04:37:27;;;;;;;;;9.75;9.00;;;;;;;;5054204;28;45440;-70
2022/02/12 04:39:52;;;;;;;;;10.00;10.00;;;;;;;;5052762;28;46305;-70
2022/02/12 04:42:18;;;;;;;;;7.50;7.00;;;;;;;;5062399;27;45368;-70
2022/02/12 04:44:45;;;;;;;;;9.75;8.25;;;;;;;;5054746;28;45276;-71
2022/02/12 04:47:10;;;;;;;;;9.50;9.25;;;;;;;;5052945;28;45394;-70
2022/02/12 04:49:37;;;;;;;;;11.50;9.75;;;;;;;;5051728;28;46689;-70
2022/02/12 04:52:03;;;;;;;;;9.25;8.50;;;;;;;;5060220;28;45386;-71
2022/02/12 04:54:28;;;;;;;;;9.50;9.50;;;;;;;;5068279;28;45405;-70
2022/02/12 04:56:54;;;;;;;;;10.00;9.75;;;;;;;;5054930;28;45512;-70
2022/02/12 04:59:19;;;;;;;;;10.50;10.00;;;;;;;;5051158;28;45930;-70
2022/02/12 05:01:44;;;;;;;;;10.25;8.75;;;;;;;;5051116;28;45517;-70
2022/02/12 05:04:10;;;;;;;;;8.75;8.75;;;;;;;;5046514;28;45572;-70
2022/02/12 05:06:36;;;;;;;;;9.75;9.75;;;;;;;;5052551;28;45502;-70
2022/02/12 05:09:01;;;;;;;;;8.75;8.75;;;;;;;;5053899;28;46622;-70
2022/02/12 05:11:26;;;;;;;;;12.50;11.00;;;;;;;;5058416;28;45253;-70
2022/02/12 05:13:53;;;;;;;;;10.00;9.00;;;;;;;;5052048;28;45373;-70
2022/02/12 05:16:19;;;;;;;;;12.00;12.00;;;;;;;;5059489;28;45533;-70
2022/02/12 05:18:44;;;;;;;;;10.00;9.00;;;;;;;;5052295;28;46896;-70
2022/02/12 05:21:09;;;;;;;;;13.75;8.25;;;;;;;;5052352;28;45256;-70
2022/02/12 05:23:34;;;;;;;;;12.25;10.00;;;;;;;;5052214;28;45558;-70
2022/02/12 05:26:00;;;;;;;;;10.00;10.00;;;;;;;;5056091;28;45388;-70
2022/02/12 05:28:25;;;;;;;;;13.25;12.00;;;;;;;;5053469;28;45625;-70
2022/02/12 05:30:50;;;;;;;;;11.75;10.75;;;;;;;;5048349;28;45414;-71
2022/02/12 05:33:15;;;;;;;;;9.00;8.50;;;;;;;;5063810;28;45270;-70
2022/02/12 05:35:41;;;;;;;;;10.75;10.75;;;;;;;;5057262;28;45404;-71
2022/02/12 05:38:07;;;;;;;;;11.75;11.00;;;;;;;;5055243;28;45507;-70
2022/02/12 05:40:32;;;;;;;;;12.00;10.25;;;;;;;;5055447;28;45609;-70
2022/02/12 05:42:59;;;;;;;;;10.50;8.75;;;;;;;;5055745;28;45484;-70
2022/02/12 05:45:24;;;;;;;;;8.75;8.25;;;;;;;;5040085;28;45447;-70
2022/02/12 05:47:50;;;;;;;;;10.00;10.00;;;;;;;;5057363;28;45397;-70
2022/02/12 05:50:15;;;;;;;;;10.25;10.00;;;;;;;;5053227;28;45504;-70
2022/02/12 05:52:40;;;;;;;;;9.75;9.00;;;;;;;;5053941;28;45402;-70
2022/02/12 05:55:05;;;;;;;;;10.50;10.50;;;;;;;;5056517;28;45392;-70
2022/02/12 05:57:31;;;;;;;;;13.50;10.50;;;;;;;;5054967;28;46331;-70
2022/02/12 05:59:56;;;;;;;;;12.25;9.25;;;;;;;;5056832;28;45316;-70
2022/02/12 06:02:21;;;;;;;;;11.50;10.50;;;;;;;;5055700;28;45465;-70
2022/02/12 06:04:46;;;;;;;;;9.50;8.50;;;;;;;;5087082;27;45307;-70
2022/02/12 06:07:11;;;;;;;;;9.75;9.75;;;;;;;;5053351;28;46611;-70
2022/02/12 06:09:37;;;;;;;;;10.75;9.75;;;;;;;;5056580;28;45322;-70
2022/02/12 06:12:02;;;;;;;;;10.75;10.25;;;;;;;;5057001;28;45398;-70
2022/02/12 06:14:28;;;;;;;;;11.00;9.00;;;;;;;;5055786;28;45512;-70
2022/02/12 06:16:56;;;;;;;;;10.00;10.00;;;;;;;;5048496;28;45628;-70
2022/02/12 06:19:21;;;;;;;;;10.25;9.75;;;;;;;;5058444;28;45354;-70
2022/02/12 06:21:46;;;;;;;;;11.25;10.25;;;;;;;;5050005;28;45356;-71
2022/02/12 06:24:13;;;;;;;;;10.00;8.50;;;;;;;;5055696;28;45347;-70
2022/02/12 06:26:40;;;;;;;;;11.00;9.50;;;;;;;;5055422;28;45433;-70
2022/02/12 06:29:05;;;;;;;;;4.75;4.00;;;;;;;;5055280;28;45299;-70
2022/02/12 06:31:30;;;;;;;;;10.75;9.25;;;;;;;;5054751;28;45544;-70
2022/02/12 06:33:55;;;;;;;;;9.75;9.00;;;;;;;;5062660;28;45544;-70
2022/02/12 06:36:21;;;;;;;;;11.75;9.50;;;;;;;;5054431;28;48802;-70
2022/02/12 06:38:46;;;;;;;;;12.50;10.25;;;;;;;;5055813;28;45390;-70
2022/02/12 06:41:11;;;;;;;;;8.00;7.75;;;;;;;;5054654;28;45583;-70
2022/02/12 06:43:36;;;;;;;;;11.00;11.00;;;;;;;;5050081;28;45432;-70
2022/02/12 06:46:01;;;;;;;;;10.75;10.00;;;;;;;;5054282;28;47519;-70
2022/02/12 06:48:27;;;;;;;;;11.25;10.00;;;;;;;;5051743;28;45456;-70
2022/02/12 06:50:52;;;;;;;;;14.25;10.00;;;;;;;;5056925;28;45327;-70
2022/02/12 06:53:17;;;;;;;;;10.75;10.00;;;;;;;;5044931;28;45309;-70
2022/02/12 06:55:42;;;;;;;;;11.00;9.00;;;;;;;;5054458;28;45596;-70
2022/02/12 06:58:08;;;;;;;;;9.00;7.25;;;;;;;;5055988;28;45474;-70
2022/02/12 07:00:33;;;;;;;;;11.25;10.25;;;;;;;;5053100;28;49042;-70
2022/02/12 07:02:58;;;;;;;;;11.75;9.00;;;;;;;;5051053;28;45516;-71
2022/02/12 07:05:23;;;;;;;;;7.50;7.50;;;;;;;;5057263;28;45400;-70
2022/02/12 07:07:49;;;;;;;;;10.75;10.75;;;;;;;;5052299;28;45318;-70
2022/02/12 07:10:16;;;;;;;;;10.25;10.25;;;;;;;;5057638;28;45458;-70
2022/02/12 07:12:41;;;;;;;;;11.75;9.75;;;;;;;;5051901;28;45508;-70
2022/02/12 07:15:07;;;;;;;;;13.50;9.25;;;;;;;;5054137;28;45468;-70
2022/02/12 07:17:37;;;;;;;;;9.00;8.25;;;;;;;;5053323;28;45392;-70
2022/02/12 07:20:02;;;;;;;;;10.00;10.00;;;;;;;;5053927;28;45388;-70
2022/02/12 07:22:27;;;;;;;;;12.25;9.50;;;;;;;;5053932;28;45548;-70
2022/02/12 07:24:53;;;;;;;;;13.25;8.00;;;;;;;;5053812;28;45343;-70
2022/02/12 07:27:18;;;;;;;;;9.75;9.75;;;;;;;;5064099;28;45448;-70
2022/02/12 07:29:44;;;;;;;;;10.50;9.50;;;;;;;;5056240;28;45469;-70
2022/02/12 07:32:09;;;;;;;;;9.00;8.00;;;;;;;;5053510;28;45314;-71
2022/02/12 07:34:34;;;;;;;;;8.50;7.00;;;;;;;;5053096;28;45525;-70
2022/02/12 07:36:59;;;;;;;;;11.25;11.25;;;;;;;;5054950;28;45652;-70
2022/02/12 07:39:25;;;;;;;;;9.50;8.50;;;;;;;;5055500;28;45706;-70
2022/02/12 07:41:50;;;;;;;;;11.75;9.00;;;;;;;;5063510;28;45498;-70
2022/02/12 07:44:15;;;;;;;;;8.25;8.00;;;;;;;;5054141;28;45580;-72
2022/02/12 07:46:41;;;;;;;;;9.00;8.75;;;;;;;;5052166;28;45441;-71
2022/02/12 07:49:06;;;;;;;;;10.00;8.75;;;;;;;;5048797;28;45480;-73
2022/02/12 07:51:31;;;;;;;;;8.25;8.25;;;;;;;;5054395;28;45520;-72
2022/02/12 07:53:57;;;;;;;;;9.50;9.00;;;;;;;;5055263;28;46168;-72
2022/02/12 07:56:23;;;;;;;;;10.25;10.25;;;;;;;;5053905;28;45317;-72
2022/02/12 07:58:49;;;;;;;;;9.00;9.00;;;;;;;;5052388;28;45470;-74
2022/02/12 08:01:14;;;;;;;;;9.50;9.00;;;;;;;;5052972;28;45517;-71
2022/02/12 08:03:39;;;;;;;;;9.75;9.25;;;;;;;;5050733;28;46546;-72
2022/02/12 08:07:27;;;;;;;;;11.75;10.00;;;;;;;;5047940;28;45324;-73
2022/02/12 08:08:50;;;;;;;;;7.00;7.00;;;;;;;;5048595;28;45474;-73
2022/02/12 08:11:26;;;;;;;;;8.75;8.50;;;;;;;;5051497;28;45395;-72
2022/02/12 08:13:51;;;;;;;;;8.00;8.00;;;;;;;;5036528;28;46655;-72
2022/02/12 08:16:17;;;;;;;;;8.00;8.00;;;;;;;;5036188;28;45274;-73
2022/02/12 08:18:42;;;;;;;;;12.75;9.00;;;;;;;;5052804;28;45443;-71
2022/02/12 08:21:07;;;;;;;;;10.75;8.25;;;;;;;;5053624;28;45289;-71
2022/02/12 08:23:32;;;;;;;;;9.50;8.00;;;;;;;;5051976;28;45693;-71
2022/02/12 08:25:57;;;;;;;;;9.00;8.25;;;;;;;;5051250;28;45460;-69
2022/02/12 08:28:23;;;;;;;;;9.50;9.50;;;;;;;;5051127;28;46086;-71
2022/02/12 08:30:48;;;;;;;;;11.25;10.50;;;;;;;;5051464;28;45578;-71
2022/02/12 08:33:13;;;;;;;;;11.25;10.00;;;;;;;;5052985;28;46416;-70
2022/02/12 08:35:40;;;;;;;;;14.75;12.75;;;;;;;;5052639;28;45587;-71
2022/02/12 08:38:06;;;;;;;;;10.50;9.75;;;;;;;;5051399;28;45505;-70
2022/02/12 08:40:31;;;;;;;;;10.75;10.75;;;;;;;;5051041;28;45559;-72
2022/02/12 08:42:57;;;;;;;;;15.50;14.25;;;;;;;;5050645;28;45454;-68
2022/02/12 08:45:23;;;;;;;;;13.50;13.00;;;;;;;;5051926;28;45375;-68
2022/02/12 08:47:49;;;;;;;;;12.00;11.50;;;;;;;;5054223;28;45391;-68
2022/02/12 08:50:15;;;;;;;;;10.25;10.00;;;;;;;;5050948;28;45493;-68
2022/02/12 08:52:40;;;;;;;;;13.25;9.75;;;;;;;;5050894;28;45303;-68
2022/02/12 08:55:06;;;;;;;;;9.00;9.00;;;;;;;;5050677;28;45308;-69
2022/02/12 08:57:31;;;;;;;;;14.50;12.00;;;;;;;;5052016;28;48793;-68
2022/02/12 08:59:57;;;;;;;;;9.75;9.25;;;;;;;;5054474;28;45289;-68
2022/02/12 09:02:22;;;;;;;;;10.50;8.25;;;;;;;;5054665;28;45223;-68
2022/02/12 09:04:47;;;;;;;;;12.50;11.75;;;;;;;;5054495;28;45584;-68
2022/02/12 09:07:13;;;;;;;;;11.25;10.50;;;;;;;;5054291;28;45608;-68
2022/02/12 09:09:42;;;;;;;;;14.50;11.00;;;;;;;;5054495;28;45817;-68
2022/02/12 09:12:07;;;;;;;;;9.25;9.25;;;;;;;;5056190;28;47389;-68
2022/02/12 09:14:32;;;;;;;;;7.75;7.75;;;;;;;;5055288;28;45517;-68
2022/02/12 09:16:58;;;;;;;;;12.75;10.25;;;;;;;;5054366;28;45474;-68
2022/02/12 09:19:23;;;;;;;;;11.75;10.00;;;;;;;;5054208;28;45492;-67
2022/02/12 09:21:48;;;;;;;;;8.50;8.50;;;;;;;;5054219;28;46504;-68
2022/02/12 09:24:13;;;;;;;;;14.25;9.00;;;;;;;;5055933;28;45351;-68
2022/02/12 09:26:40;;;;;;;;;10.75;9.00;;;;;;;;5055780;28;45414;-68
2022/02/12 09:29:07;;;;;;;;;12.50;10.50;;;;;;;;5054153;28;45404;-68
2022/02/12 09:31:32;;;;;;;;;10.75;10.75;;;;;;;;5053604;28;46261;-67
2022/02/12 09:33:57;;;;;;;;;10.50;8.00;;;;;;;;5053940;28;45395;-68
2022/02/12 09:36:23;;;;;;;;;8.50;8.50;;;;;;;;5055529;28;45474;-68
2022/02/12 09:38:48;;;;;;;;;11.00;9.50;;;;;;;;5057533;28;45638;-68
2022/02/12 09:41:14;;;;;;;;;10.00;9.75;;;;;;;;5053388;28;45798;-68
2022/02/12 09:43:40;;;;;;;;;10.25;9.00;;;;;;;;5053749;28;45347;-68
2022/02/12 09:46:06;;;;;;;;;10.25;9.00;;;;;;;;5053732;28;45496;-68
2022/02/12 09:48:31;;;;;;;;;10.75;10.25;;;;;;;;5053956;28;45505;-68
2022/02/12 09:50:58;;;;;;;;;8.50;8.50;;;;;;;;5056936;28;46226;-68
2022/02/12 09:53:23;;;;;;;;;10.75;9.75;;;;;;;;5055642;28;45422;-67
2022/02/12 09:55:49;;;;;;;;;13.25;8.75;;;;;;;;5053269;28;45579;-68
2022/02/12 09:58:15;;;;;;;;;9.75;9.75;;;;;;;;5049158;28;45379;-68
2022/02/12 10:00:41;;;;;;;;;10.25;10.25;;;;;;;;5053607;28;46389;-68
2022/02/12 10:03:06;;;;;;;;;12.25;10.00;;;;;;;;5055657;28;45568;-68
2022/02/12 10:05:31;;;;;;;;;10.50;9.75;;;;;;;;5054933;28;45437;-68
2022/02/12 10:08:03;;;;;;;;;9.00;9.00;;;;;;;;5053381;28;45364;-68
2022/02/12 10:10:29;;;;;;;;;12.50;11.00;;;;;;;;5052929;28;46207;-68
2022/02/12 10:13:09;;;;;;;;;10.00;9.00;;;;;;;;5051898;28;45489;-68
2022/02/12 10:15:35;;;;;;;;;9.50;8.00;;;;;;;;5054662;28;45347;-68
2022/02/12 10:18:01;;;;;;;;;9.75;9.75;;;;;;;;5056366;28;45301;-68
2022/02/12 10:20:29;;;;;;;;;10.25;9.00;;;;;;;;5054142;28;46454;-68
2022/02/12 10:23:01;;;;;;;;;10.00;8.75;;;;;;;;5053083;28;45404;-68
2022/02/12 10:25:26;;;;;;;;;10.25;9.25;;;;;;;;5052923;28;45378;-68
2022/02/12 10:27:51;;;;;;;;;8.25;7.50;;;;;;;;5053302;28;48541;-68
2022/02/12 10:30:17;;;;;;;;;10.00;9.50;;;;;;;;5054599;28;46215;-67
2022/02/12 10:32:44;;;;;;;;;11.00;9.75;;;;;;;;5055336;28;45485;-68
2022/02/12 10:35:10;;;;;;;;;8.00;8.00;;;;;;;;5053087;28;45475;-68
2022/02/12 10:37:40;;;;;;;;;9.25;8.00;;;;;;;;5085453;27;45486;-68
2022/02/12 10:40:06;;;;;;;;;8.25;8.00;;;;;;;;5052531;28;45315;-68
2022/02/12 10:42:31;;;;;;;;;7.75;7.00;;;;;;;;5052780;28;45561;-68
2022/02/12 10:44:57;;;;;;;;;8.75;7.75;;;;;;;;5056445;28;45485;-68
2022/02/12 10:47:22;;;;;;;;;7.50;6.00;;;;;;;;5053293;28;45305;-67
2022/02/12 10:49:48;;;;;;;;;9.25;7.75;;;;;;;;5052573;28;45494;-68
2022/02/12 10:52:14;;;;;;;;;10.00;8.00;;;;;;;;5052545;28;45390;-68
2022/02/12 10:54:40;;;;;;;;;7.00;7.00;;;;;;;;5053890;28;45355;-68
2022/02/12 10:57:06;;;;;;;;;7.75;7.75;;;;;;;;5055338;28;45586;-68
2022/02/12 10:59:33;;;;;;;;;10.00;7.00;;;;;;;;5053766;28;45350;-68
2022/02/12 11:01:58;;;;;;;;;11.00;7.00;;;;;;;;5052631;28;45281;-68
2022/02/12 11:04:24;;;;;;;;;7.25;7.00;;;;;;;;5053920;28;45344;-68
2022/02/12 11:06:50;;;;;;;;;8.00;8.00;;;;;;;;5053066;28;45399;-68
2022/02/12 11:09:15;;;;;;;;;10.00;7.75;;;;;;;;5053904;28;45461;-68
2022/02/12 11:11:41;;;;;;;;;9.50;8.75;;;;;;;;5054497;28;45532;-68
2022/02/12 11:14:07;;;;;;;;;9.50;8.00;;;;;;;;5052454;28;45600;-68
2022/02/12 11:16:34;;;;;;;;;9.00;8.75;;;;;;;;5052438;28;45397;-67
2022/02/12 11:19:01;;;;;;;;;8.00;7.00;;;;;;;;5052059;28;45362;-68
2022/02/12 11:21:29;;;;;;;;;7.00;6.75;;;;;;;;5036750;28;45324;-68
2022/02/12 11:24:01;;;;;;;;;8.75;8.00;;;;;;;;5035363;28;45233;-68
2022/02/12 11:26:26;;;;;;;;;7.50;7.50;;;;;;;;5053099;28;45319;-68
2022/02/12 11:28:52;;;;;;;;;7.75;6.50;;;;;;;;5084318;27;47022;-67
2022/02/12 11:31:20;;;;;;;;;8.25;8.00;;;;;;;;5052124;28;45465;-68
2022/02/12 11:34:04;;;;;;;;;7.50;5.75;;;;;;;;5053421;28;45487;-68
2022/02/12 11:36:31;;;;;;;;;7.75;7.75;;;;;;;;5052226;28;45378;-68
2022/02/12 11:39:09;;;;;;;;;9.00;7.50;;;;;;;;5055200;28;46418;-67
2022/02/12 11:41:35;;;;;;;;;6.75;6.75;;;;;;;;5054987;28;45509;-68
2022/02/12 11:44:00;;;;;;;;;7.00;6.50;;;;;;;;5051967;28;45292;-68
2022/02/12 11:46:40;;;;;;;;;6.00;6.00;;;;;;;;5051936;28;45862;-68
2022/02/12 11:49:25;;;;;;;;;8.00;7.00;;;;;;;;5051780;28;45743;-68
2022/02/12 11:51:50;;;;;;;;;5.25;5.25;;;;;;;;5051450;28;45602;-67
2022/02/12 11:54:34;;;;;;;;;7.50;6.00;;;;;;;;5053452;28;45309;-68
2022/02/12 11:56:59;;;;;;;;;6.50;5.50;;;;;;;;5051768;28;45265;-68
2022/02/12 11:59:24;;;;;;;;;6.75;6.50;;;;;;;;5052219;28;46323;-67
2022/02/12 12:01:51;;;;;;;;;6.00;6.00;;;;;;;;5051649;28;46656;-68
2022/02/12 12:04:22;;;;;;;;;9.00;7.00;;;;;;;;5051603;28;45586;-68
2022/02/12 12:07:00;;;;;;;;;5.50;5.50;;;;;;;;5051224;28;45554;-68
2022/02/12 12:09:31;;;;;;;;;7.25;6.50;;;;;;;;5035889;28;45421;-67
2022/02/12 12:12:15;;;;;;;;;8.00;5.25;;;;;;;;5051356;28;45292;-68
2022/02/12 12:14:41;;;;;;;;;5.25;5.25;;;;;;;;5053526;28;45712;-67
2022/02/12 12:17:06;;;;;;;;;7.25;7.25;;;;;;;;5051249;28;45487;-68
2022/02/12 12:19:36;;;;;;;;;5.75;5.75;;;;;;;;5051279;28;45332;-68
2022/02/12 12:22:05;;;;;;;;;8.00;6.00;;;;;;;;5051185;28;45395;-67
2022/02/12 12:24:30;;;;;;;;;6.00;5.00;;;;;;;;5051653;28;45439;-68
2022/02/12 12:26:55;;;;;;;;;6.50;6.50;;;;;;;;5055018;28;45406;-68
2022/02/12 12:32:20;;;;;;;;;7.00;7.00;;;;;;;;5049065;28;45410;-69
2022/02/12 12:34:51;;;;;;;;;5.00;5.00;;;;;;;;5050962;28;45569;-67
2022/02/12 12:37:16;;;;;;;;;8.00;6.00;;;;;;;;5054757;28;45420;-68
2022/02/12 12:39:42;;;;;;;;;5.75;5.00;;;;;;;;5054701;28;45345;-68
2022/02/12 12:42:20;;;;;;;;;7.75;6.00;;;;;;;;5057319;28;45299;-68
2022/02/12 12:45:06;;;;;;;;;6.25;4.25;;;;;;;;5057754;28;45394;-67
2022/02/12 12:47:31;;;;;;;;;6.75;4.75;;;;;;;;5058306;28;45580;-68
2022/02/12 12:49:58;;;;;;;;;6.75;5.50;;;;;;;;5054186;28;47389;-67
2022/02/12 12:52:26;;;;;;;;;6.00;5.00;;;;;;;;5055330;28;46052;-67
2022/02/12 12:54:55;;;;;;;;;4.00;4.00;;;;;;;;5054622;28;45458;-67
2022/02/12 12:57:25;;;;;;;;;6.25;5.00;;;;;;;;5055914;28;45410;-68
2022/02/12 12:59:51;;;;;;;;;5.00;4.00;;;;;;;;5057692;28;45523;-68
2022/02/12 13:02:16;;;;;;;;;4.50;4.50;;;;;;;;5054205;28;45394;-68
2022/02/12 13:05:07;;;;;;;;;7.50;6.00;;;;;;;;5054144;28;45458;-68
2022/02/12 13:07:33;;;;;;;;;8.00;6.00;;;;;;;;5051188;28;45700;-68
2022/02/12 13:10:00;;;;;;;;;5.00;5.00;;;;;;;;5054397;28;46105;-67
2022/02/12 13:12:26;;;;;;;;;5.00;5.00;;;;;;;;5038741;28;45636;-68
2022/02/12 13:14:52;;;;;;;;;8.50;4.75;;;;;;;;5057697;28;45356;-68
2022/02/12 13:17:18;;;;;;;;;5.25;5.25;;;;;;;;5054114;28;45288;-68
2022/02/12 13:19:44;;;;;;;;;6.75;5.00;;;;;;;;5055082;28;46338;-68
2022/02/12 13:22:12;;;;;;;;;4.00;3.50;;;;;;;;5054037;28;45501;-68
2022/02/12 13:24:38;;;;;;;;;7.00;6.00;;;;;;;;5054686;28;45577;-68
2022/02/12 13:27:04;;;;;;;;;6.00;4.75;;;;;;;;5056956;28;45398;-68
2022/02/12 13:29:29;;;;;;;;;5.50;5.25;;;;;;;;5055046;28;46927;-68
2022/02/12 13:32:00;;;;;;;;;5.50;4.75;;;;;;;;5055137;28;45590;-67
2022/02/12 13:34:27;;;;;;;;;4.00;4.00;;;;;;;;5053643;28;45344;-68
2022/02/12 13:36:52;;;;;;;;;4.50;4.50;;;;;;;;5053956;28;45374;-68
2022/02/12 13:39:18;;;;;;;;;4.00;4.00;;;;;;;;5055465;28;46381;-68
2022/02/12 13:41:43;;;;;;;;;6.00;4.00;;;;;;;;5055991;28;45384;-68
2022/02/12 13:44:09;;;;;;;;;5.00;5.00;;;;;;;;5053956;28;45306;-68
2022/02/12 13:46:38;;;;;;;;;5.25;3.50;;;;;;;;5053705;28;45504;-68
2022/02/12 13:49:17;;;;;;;;;5.75;5.75;;;;;;;;5053181;28;45698;-68
2022/02/12 13:51:56;;;;;;;;;7.00;4.25;;;;;;;;5053623;28;45362;-68
2022/02/12 13:54:22;;;;;;;;;6.00;5.00;;;;;;;;5054722;28;45466;-68
2022/02/12 13:56:51;;;;;;;;;5.25;5.25;;;;;;;;5056524;28;45297;-68
2022/02/12 13:59:16;;;;;;;;;4.25;4.25;;;;;;;;5053505;28;47091;-68
2022/02/12 14:01:41;;;;;;;;;4.00;4.00;;;;;;;;5053458;28;45390;-68
2022/02/12 14:04:06;;;;;;;;;3.25;3.25;;;;;;;;5053393;28;45448;-68
2022/02/12 14:06:32;;;;;;;;;4.50;4.50;;;;;;;;5053626;28;45634;-67
2022/02/12 14:09:00;;;;;;;;;4.00;4.00;;;;;;;;5056910;28;45587;-67
2022/02/12 14:11:27;;;;;;;;;5.00;5.00;;;;;;;;5054098;28;45461;-68
2022/02/12 14:13:52;;;;;;;;;5.50;5.50;;;;;;;;5053376;28;45385;-68
2022/02/12 14:16:17;;;;;;;;;3.00;3.00;;;;;;;;5052981;28;50038;-67
2022/02/12 14:18:42;;;;;;;;;4.25;4.25;;;;;;;;5053440;28;45510;-68
2022/02/12 14:21:08;;;;;;;;;3.25;3.25;;;;;;;;5055769;28;45266;-68
2022/02/12 14:23:33;;;;;;;;;5.25;3.75;;;;;;;;5054546;28;45270;-67
2022/02/12 14:25:59;;;;;;;;;5.00;5.00;;;;;;;;5053342;28;45409;-67
2022/02/12 14:28:25;;;;;;;;;4.00;3.25;;;;;;;;5053046;28;45425;-68
2022/02/12 14:30:50;;;;;;;;;6.00;4.00;;;;;;;;5052947;28;45310;-67
2022/02/12 14:33:16;;;;;;;;;4.50;4.50;;;;;;;;5055220;28;45319;-67
2022/02/12 14:35:42;;;;;;;;;4.00;4.00;;;;;;;;5055158;28;45523;-68
2022/02/12 14:38:08;;;;;;;;;5.00;5.00;;;;;;;;5052884;28;46076;-68